Impacts TAF Board
For situational awareness. Not to be used for flight planning purposes.
IDs:

KCLE - Cleveland/Hopkins In, OH, US

Issued at 1120 UTC 17 Dec 2018
Updated at 1209 UTC 17 Dec 2018
Potential Impact None Slight Moderate High
Time1151Z 17/13Z 17/14Z 17/15Z 17/16Z 17/17Z 17/18Z 17/19Z 17/20Z 17/21Z 17/22Z 17/23Z 18/00Z 18/01Z>>
Type OBS PRVL PRVL PRVL PRVL PRVL PRVL PRVL PRVL PRVL PRVL PRVL PRVL PRVL
VIS 10 >6 >6 >6 >6 >6 >6 >6 >6 >6 >6 >6 >6 >6
CIG -- -- -- -- 35 35 35 35 35 30 30 30 50 50
Cover SCT SCT SCT SCT BKN BKN BKN BKN BKN OVC OVC OVC OVC OVC
FltCat VFR VFR VFR VFR VFR VFR VFR VFR VFR MVFR MVFR MVFR VFR VFR
WX -- -- -- -- -- -- -- -- -- VCSH VCSH VCSH -- --
WDir 270 260 260 260 300 300 300 300 300 320 320 320 320 320
WSpd 10 10 10 10 13 13 13 13 13 11 11 11 10 10
WGst -- -- -- -- 20 20 20 20 20 17 17 17 -- --
Raw TAF
KCLE 171120Z 1712/1818 26010KT P6SM SCT250
  FM171600 30013G20KT P6SM BKN035
  FM172100 32011G17KT P6SM VCSH OVC030
  FM180000 32010KT P6SM OVC050


Raw METAR
KCLE 171151Z 27010KT 10SM SCT250 02/M01 A2999 RMK AO2 SLP163 T00171011 10033 20006 53014
KCLE 171051Z 26009KT 10SM SCT250 01/M01 A2997 RMK AO2 SLP155 T00111011
KCLE 170951Z 22006KT 10SM FEW250 01/M01 A2994 RMK AO2 SLP146 T00111011

METAR Board
Radar Display
Forecast Discussion
For situational awareness. Not to be used for flight planning purposes.